Marion, VA (24354)

03:32 PM EST die 22o December, anno 2014 (GMT -0500)
Smyth Weather | Change Station
CLOSE
Current Station
Personal Weather Stations
Location: Marion, VA
Elevation: 2157 ft
Nearby Weather Stations

Elev 2157 ft 36.81 °N, 81.59 °W | Updated 16 seconds ago

Plerumque Nubila
Plerumque Nubila
42.2 °F
Feels Like 39 °F
N
4.6
Ventus Variabilis Ventus from Inter Aquilonem et Eurum
Gusts 4.6 mph

Hodie
High -- | Low -- °F
--% Chance of Precip.
Yesterday
High -- | Low -- °F
Precip. -- in
7:35 AM 5:13 PM
New, 1% visible
Pressio 30.01 in
Visibilitas 1.2 milia passuum
Clouds Aequaliter Nubila 400 ft
Frigus Venti 39 °F
Frigus in quo Ros apparet 38 °F
Umor 85%
Rainfall 0.00 in
Snow Depth Not available.
UV 0 out of 12
Pollen .10 out of 12
Air Quality Not available.
Flu Activity Not available.
METAR KMKJ 222015Z AUTO 07010KT 1 1/4SM BR OVC004 03/02 A3001 RMK AO2 T00300020

More Conditions Fewer Conditions

Pressio 30.01 in
Visibilitas 1.2 milia passuum
Clouds Aequaliter Nubila 400 ft
Frigus Venti 39 °F
Frigus in quo Ros apparet 38 °F
Umor 85%
Rainfall 0.00 in
Snow Depth Not available.
UV 0 out of 12
Pollen .10 out of 12
Air Quality Not available.
Flu Activity Not available.
METAR KMKJ 222015Z AUTO 07010KT 1 1/4SM BR OVC004 03/02 A3001 RMK AO2 T00300020

More Conditions Fewer Conditions

10-Day Weather Forecast

Almanac

Astronomy

Dec. 22, 2014 Rise Set
Actual Time
Civil Twilight
Nautical Twilight
Astronomical Twilight
Moon
Length Of Visible Light
Length of Day
Tomorrow will be .
, % of the Moon is Illuminated

Today's Extremes

State Highs State Lows

Community

WunderPhotos

Upload Photos

1,779,680 photos uploaded!

WunderBlogs® & News

Nearby

Air Quality

  Air Quality AQ Index Pollutant
Not available.

Snow Depth

Station Depth Elevation

Earthquake Activity

City Distance Mag. Time & Date
Minimum magnitude displayed is 2.5.

Coastal Water Temperatures

Locus Calor

Nearby Weather Stations